Аэропорт: Атырау. Атырау

ICAO: UATG

METAR:
2022-06-26 11:30:00
UATG 261130Z 05005G10MPS 020V090 9999 SCT033CB 36/14 Q1006 NOSIG RMK QFE756/1008
METAR:
2022-06-26 05:01:00
TAF UATG 260501Z 2606/2706 VRB03MPS CAVOK TX37/2611Z TN20/2701Z FM260900 34006MPS 9999 SCT033CB BECMG 2614/2616 02011MPS